sensor_id;sensor_type;location;lat;lon;timestamp;P1;durP1;ratioP1;P2;durP2;ratioP2
10389;SDS011;5241;47.830;12.972;2023-01-31T00:00:23;6.60;;;4.70;;
10389;SDS011;5241;47.830;12.972;2023-01-31T00:02:48;8.30;;;4.90;;
10389;SDS011;5241;47.830;12.972;2023-01-31T00:05:14;13.03;;;4.87;;
10389;SDS011;5241;47.830;12.972;2023-01-31T00:07:40;8.90;;;4.73;;
10389;SDS011;5241;47.830;12.972;2023-01-31T00:10:05;9.33;;;4.57;;
10389;SDS011;5241;47.830;12.972;2023-01-31T00:12:31;8.50;;;4.90;;
10389;SDS011;5241;47.830;12.972;2023-01-31T00:14:57;8.43;;;5.17;;
10389;SDS011;5241;47.830;12.972;2023-01-31T00:17:22;7.13;;;4.60;;
10389;SDS011;5241;47.830;12.972;2023-01-31T00:19:48;7.17;;;4.90;;
10389;SDS011;5241;47.830;12.972;2023-01-31T00:22:13;9.60;;;5.20;;
10389;SDS011;5241;47.830;12.972;2023-01-31T00:24:39;6.47;;;4.87;;
10389;SDS011;5241;47.830;12.972;2023-01-31T00:27:04;11.27;;;4.70;;
10389;SDS011;5241;47.830;12.972;2023-01-31T00:29:31;8.90;;;4.67;;
10389;SDS011;5241;47.830;12.972;2023-01-31T00:31:57;9.70;;;4.70;;
10389;SDS011;5241;47.830;12.972;2023-01-31T00:34:22;9.53;;;4.73;;
10389;SDS011;5241;47.830;12.972;2023-01-31T00:36:48;8.20;;;4.80;;
10389;SDS011;5241;47.830;12.972;2023-01-31T00:39:13;7.83;;;4.83;;
10389;SDS011;5241;47.830;12.972;2023-01-31T00:41:39;8.40;;;4.80;;
10389;SDS011;5241;47.830;12.972;2023-01-31T00:44:04;7.50;;;4.70;;
10389;SDS011;5241;47.830;12.972;2023-01-31T00:46:31;13.97;;;5.53;;
10389;SDS011;5241;47.830;12.972;2023-01-31T00:48:57;8.47;;;5.00;;
10389;SDS011;5241;47.830;12.972;2023-01-31T00:51:23;9.20;;;5.07;;
10389;SDS011;5241;47.830;12.972;2023-01-31T00:53:50;6.13;;;4.40;;
10389;SDS011;5241;47.830;12.972;2023-01-31T00:56:16;7.03;;;4.27;;
10389;SDS011;5241;47.830;12.972;2023-01-31T00:58:44;7.53;;;4.70;;
10389;SDS011;5241;47.830;12.972;2023-01-31T01:01:14;9.07;;;4.90;;
10389;SDS011;5241;47.830;12.972;2023-01-31T01:03:42;8.60;;;4.57;;
10389;SDS011;5241;47.830;12.972;2023-01-31T01:06:09;8.43;;;4.63;;
10389;SDS011;5241;47.830;12.972;2023-01-31T01:08:35;10.77;;;5.20;;
10389;SDS011;5241;47.830;12.972;2023-01-31T01:11:09;10.43;;;5.13;;
10389;SDS011;5241;47.830;12.972;2023-01-31T01:13:37;5.57;;;3.73;;
10389;SDS011;5241;47.830;12.972;2023-01-31T01:16:04;10.97;;;4.93;;
10389;SDS011;5241;47.830;12.972;2023-01-31T01:18:34;8.87;;;4.77;;
10389;SDS011;5241;47.830;12.972;2023-01-31T01:21:07;8.53;;;4.87;;
10389;SDS011;5241;47.830;12.972;2023-01-31T01:23:34;6.60;;;4.33;;
10389;SDS011;5241;47.830;12.972;2023-01-31T01:26:00;8.57;;;4.50;;
10389;SDS011;5241;47.830;12.972;2023-01-31T01:28:26;8.60;;;5.33;;
10389;SDS011;5241;47.830;12.972;2023-01-31T01:30:51;7.60;;;4.60;;
10389;SDS011;5241;47.830;12.972;2023-01-31T01:33:17;9.57;;;4.67;;
10389;SDS011;5241;47.830;12.972;2023-01-31T01:35:42;7.70;;;4.77;;
10389;SDS011;5241;47.830;12.972;2023-01-31T01:38:08;6.00;;;3.80;;
10389;SDS011;5241;47.830;12.972;2023-01-31T01:40:34;8.87;;;4.30;;
10389;SDS011;5241;47.830;12.972;2023-01-31T01:43:01;6.93;;;4.33;;
10389;SDS011;5241;47.830;12.972;2023-01-31T01:45:26;8.33;;;4.50;;
10389;SDS011;5241;47.830;12.972;2023-01-31T01:47:53;7.03;;;4.87;;
10389;SDS011;5241;47.830;12.972;2023-01-31T01:50:38;9.20;;;4.93;;
10389;SDS011;5241;47.830;12.972;2023-01-31T01:53:09;11.57;;;4.80;;
10389;SDS011;5241;47.830;12.972;2023-01-31T01:58:31;7.80;;;4.67;;
10389;SDS011;5241;47.830;12.972;2023-01-31T02:01:05;8.57;;;4.47;;
10389;SDS011;5241;47.830;12.972;2023-01-31T02:03:32;6.70;;;4.27;;
10389;SDS011;5241;47.830;12.972;2023-01-31T02:06:00;7.93;;;4.37;;
10389;SDS011;5241;47.830;12.972;2023-01-31T02:08:29;8.77;;;4.43;;
10389;SDS011;5241;47.830;12.972;2023-01-31T02:13:39;10.37;;;4.60;;
10389;SDS011;5241;47.830;12.972;2023-01-31T02:16:06;8.00;;;4.40;;
10389;SDS011;5241;47.830;12.972;2023-01-31T02:18:33;7.53;;;5.07;;
10389;SDS011;5241;47.830;12.972;2023-01-31T02:29:52;8.80;;;4.50;;
10389;SDS011;5241;47.830;12.972;2023-01-31T02:42:53;9.70;;;4.80;;
10389;SDS011;5241;47.830;12.972;2023-01-31T02:45:35;9.67;;;4.87;;
10389;SDS011;5241;47.830;12.972;2023-01-31T02:48:16;6.87;;;4.37;;
10389;SDS011;5241;47.830;12.972;2023-01-31T02:50:49;7.33;;;4.20;;
10389;SDS011;5241;47.830;12.972;2023-01-31T02:53:31;6.80;;;4.50;;
10389;SDS011;5241;47.830;12.972;2023-01-31T02:56:08;8.23;;;4.40;;
10389;SDS011;5241;47.830;12.972;2023-01-31T02:58:45;9.93;;;3.90;;
10389;SDS011;5241;47.830;12.972;2023-01-31T03:01:28;7.80;;;3.87;;
10389;SDS011;5241;47.830;12.972;2023-01-31T03:03:57;6.50;;;3.93;;
10389;SDS011;5241;47.830;12.972;2023-01-31T03:17:56;7.23;;;3.60;;
10389;SDS011;5241;47.830;12.972;2023-01-31T03:20:38;6.90;;;3.40;;
10389;SDS011;5241;47.830;12.972;2023-01-31T03:23:20;6.83;;;3.87;;
10389;SDS011;5241;47.830;12.972;2023-01-31T03:25:50;5.17;;;3.90;;
10389;SDS011;5241;47.830;12.972;2023-01-31T03:28:17;9.03;;;4.77;;
10389;SDS011;5241;47.830;12.972;2023-01-31T03:30:48;8.53;;;3.73;;
10389;SDS011;5241;47.830;12.972;2023-01-31T03:33:21;6.27;;;4.00;;
10389;SDS011;5241;47.830;12.972;2023-01-31T03:35:51;6.67;;;3.80;;
10389;SDS011;5241;47.830;12.972;2023-01-31T03:38:25;5.83;;;3.50;;
10389;SDS011;5241;47.830;12.972;2023-01-31T03:40:57;5.70;;;3.53;;
10389;SDS011;5241;47.830;12.972;2023-01-31T03:46:21;9.87;;;4.17;;
10389;SDS011;5241;47.830;12.972;2023-01-31T03:49:17;6.60;;;3.67;;
10389;SDS011;5241;47.830;12.972;2023-01-31T03:51:49;8.57;;;4.17;;
10389;SDS011;5241;47.830;12.972;2023-01-31T03:54:19;7.67;;;3.73;;
10389;SDS011;5241;47.830;12.972;2023-01-31T03:56:52;7.50;;;3.70;;
10389;SDS011;5241;47.830;12.972;2023-01-31T03:59:22;5.27;;;3.30;;
10389;SDS011;5241;47.830;12.972;2023-01-31T04:01:54;9.97;;;3.70;;
10389;SDS011;5241;47.830;12.972;2023-01-31T04:04:25;6.23;;;3.60;;
10389;SDS011;5241;47.830;12.972;2023-01-31T04:07:04;7.70;;;3.50;;
10389;SDS011;5241;47.830;12.972;2023-01-31T04:09:30;6.87;;;2.83;;
10389;SDS011;5241;47.830;12.972;2023-01-31T04:11:58;8.00;;;3.37;;
10389;SDS011;5241;47.830;12.972;2023-01-31T04:14:25;5.87;;;3.40;;
10389;SDS011;5241;47.830;12.972;2023-01-31T04:16:52;6.10;;;3.53;;
10389;SDS011;5241;47.830;12.972;2023-01-31T04:19:17;8.07;;;3.40;;
10389;SDS011;5241;47.830;12.972;2023-01-31T04:21:43;7.37;;;3.10;;
10389;SDS011;5241;47.830;12.972;2023-01-31T04:24:08;6.47;;;3.50;;
10389;SDS011;5241;47.830;12.972;2023-01-31T04:26:34;7.90;;;3.33;;
10389;SDS011;5241;47.830;12.972;2023-01-31T04:29:00;7.70;;;3.43;;
10389;SDS011;5241;47.830;12.972;2023-01-31T04:31:26;6.90;;;3.23;;
10389;SDS011;5241;47.830;12.972;2023-01-31T04:33:51;5.97;;;3.53;;
10389;SDS011;5241;47.830;12.972;2023-01-31T04:36:17;4.53;;;2.60;;
10389;SDS011;5241;47.830;12.972;2023-01-31T04:38:43;7.70;;;3.40;;
10389;SDS011;5241;47.830;12.972;2023-01-31T04:41:08;8.53;;;3.30;;
10389;SDS011;5241;47.830;12.972;2023-01-31T04:43:34;5.87;;;3.30;;
10389;SDS011;5241;47.830;12.972;2023-01-31T04:45:59;5.97;;;3.57;;
10389;SDS011;5241;47.830;12.972;2023-01-31T04:48:25;6.33;;;3.10;;
10389;SDS011;5241;47.830;12.972;2023-01-31T04:50:50;7.90;;;3.20;;
10389;SDS011;5241;47.830;12.972;2023-01-31T04:53:16;7.43;;;3.00;;
10389;SDS011;5241;47.830;12.972;2023-01-31T04:55:41;8.30;;;3.90;;
10389;SDS011;5241;47.830;12.972;2023-01-31T04:58:07;7.67;;;2.67;;
10389;SDS011;5241;47.830;12.972;2023-01-31T05:00:33;3.23;;;2.40;;
10389;SDS011;5241;47.830;12.972;2023-01-31T05:02:58;5.03;;;2.53;;
10389;SDS011;5241;47.830;12.972;2023-01-31T05:05:25;7.80;;;2.93;;
10389;SDS011;5241;47.830;12.972;2023-01-31T05:07:50;7.10;;;3.20;;
10389;SDS011;5241;47.830;12.972;2023-01-31T05:10:16;4.83;;;2.87;;
10389;SDS011;5241;47.830;12.972;2023-01-31T05:12:42;4.73;;;2.83;;
10389;SDS011;5241;47.830;12.972;2023-01-31T05:15:08;5.73;;;3.13;;
10389;SDS011;5241;47.830;12.972;2023-01-31T05:17:35;7.23;;;3.13;;
10389;SDS011;5241;47.830;12.972;2023-01-31T05:20:01;7.20;;;3.07;;
10389;SDS011;5241;47.830;12.972;2023-01-31T05:22:27;5.47;;;2.80;;
10389;SDS011;5241;47.830;12.972;2023-01-31T05:24:52;5.77;;;3.20;;
10389;SDS011;5241;47.830;12.972;2023-01-31T05:27:18;4.10;;;2.77;;
10389;SDS011;5241;47.830;12.972;2023-01-31T05:29:43;7.03;;;3.57;;
10389;SDS011;5241;47.830;12.972;2023-01-31T05:32:09;7.37;;;3.67;;
10389;SDS011;5241;47.830;12.972;2023-01-31T05:34:35;6.37;;;3.27;;
10389;SDS011;5241;47.830;12.972;2023-01-31T05:37:01;5.70;;;3.23;;
10389;SDS011;5241;47.830;12.972;2023-01-31T05:39:27;8.10;;;3.23;;
10389;SDS011;5241;47.830;12.972;2023-01-31T05:41:53;4.57;;;2.90;;
10389;SDS011;5241;47.830;12.972;2023-01-31T05:44:20;6.40;;;3.77;;
10389;SDS011;5241;47.830;12.972;2023-01-31T05:46:46;7.47;;;3.30;;
10389;SDS011;5241;47.830;12.972;2023-01-31T05:49:12;5.00;;;3.27;;
10389;SDS011;5241;47.830;12.972;2023-01-31T05:51:38;4.93;;;2.90;;
10389;SDS011;5241;47.830;12.972;2023-01-31T05:54:05;6.30;;;3.40;;
10389;SDS011;5241;47.830;12.972;2023-01-31T05:56:31;5.17;;;3.37;;
10389;SDS011;5241;47.830;12.972;2023-01-31T05:58:56;6.37;;;3.40;;
10389;SDS011;5241;47.830;12.972;2023-01-31T06:01:23;6.10;;;3.10;;
10389;SDS011;5241;47.830;12.972;2023-01-31T06:03:50;6.37;;;2.97;;
10389;SDS011;5241;47.830;12.972;2023-01-31T06:06:16;6.60;;;3.37;;
10389;SDS011;5241;47.830;12.972;2023-01-31T06:08:42;5.03;;;3.07;;
10389;SDS011;5241;47.830;12.972;2023-01-31T06:11:08;9.00;;;3.47;;
10389;SDS011;5241;47.830;12.972;2023-01-31T06:13:35;7.00;;;3.03;;
10389;SDS011;5241;47.830;12.972;2023-01-31T06:16:01;6.60;;;3.17;;
10389;SDS011;5241;47.830;12.972;2023-01-31T06:18:26;7.00;;;3.20;;
10389;SDS011;5241;47.830;12.972;2023-01-31T06:20:52;7.67;;;3.40;;
10389;SDS011;5241;47.830;12.972;2023-01-31T06:23:18;6.10;;;3.23;;
10389;SDS011;5241;47.830;12.972;2023-01-31T06:25:44;6.10;;;3.00;;
10389;SDS011;5241;47.830;12.972;2023-01-31T06:28:13;6.40;;;3.03;;
10389;SDS011;5241;47.830;12.972;2023-01-31T06:30:38;8.53;;;3.73;;
10389;SDS011;5241;47.830;12.972;2023-01-31T06:33:04;7.40;;;3.60;;
10389;SDS011;5241;47.830;12.972;2023-01-31T06:35:29;8.87;;;3.30;;
10389;SDS011;5241;47.830;12.972;2023-01-31T06:37:55;6.20;;;3.80;;
10389;SDS011;5241;47.830;12.972;2023-01-31T06:40:20;8.97;;;3.60;;
10389;SDS011;5241;47.830;12.972;2023-01-31T06:42:46;8.63;;;3.73;;
10389;SDS011;5241;47.830;12.972;2023-01-31T06:45:11;8.43;;;3.57;;
10389;SDS011;5241;47.830;12.972;2023-01-31T06:47:37;7.83;;;3.20;;
10389;SDS011;5241;47.830;12.972;2023-01-31T06:50:03;9.30;;;3.67;;
10389;SDS011;5241;47.830;12.972;2023-01-31T06:52:28;7.67;;;2.90;;
10389;SDS011;5241;47.830;12.972;2023-01-31T06:54:54;9.87;;;3.47;;
10389;SDS011;5241;47.830;12.972;2023-01-31T06:57:20;7.77;;;3.57;;
10389;SDS011;5241;47.830;12.972;2023-01-31T06:59:45;7.03;;;3.63;;
10389;SDS011;5241;47.830;12.972;2023-01-31T07:02:11;8.77;;;3.77;;
10389;SDS011;5241;47.830;12.972;2023-01-31T07:04:36;7.50;;;3.90;;
10389;SDS011;5241;47.830;12.972;2023-01-31T07:07:02;5.43;;;4.03;;
10389;SDS011;5241;47.830;12.972;2023-01-31T07:09:28;6.53;;;3.90;;
10389;SDS011;5241;47.830;12.972;2023-01-31T07:11:53;10.23;;;4.03;;
10389;SDS011;5241;47.830;12.972;2023-01-31T07:14:19;6.97;;;3.57;;
10389;SDS011;5241;47.830;12.972;2023-01-31T07:16:44;5.43;;;3.43;;
10389;SDS011;5241;47.830;12.972;2023-01-31T07:19:10;5.07;;;3.17;;
10389;SDS011;5241;47.830;12.972;2023-01-31T07:21:35;5.73;;;3.53;;
10389;SDS011;5241;47.830;12.972;2023-01-31T07:24:01;9.43;;;3.27;;
10389;SDS011;5241;47.830;12.972;2023-01-31T07:26:27;7.20;;;3.43;;
10389;SDS011;5241;47.830;12.972;2023-01-31T07:28:53;9.17;;;3.33;;
10389;SDS011;5241;47.830;12.972;2023-01-31T07:31:19;6.93;;;3.47;;
10389;SDS011;5241;47.830;12.972;2023-01-31T07:33:45;8.27;;;3.73;;
10389;SDS011;5241;47.830;12.972;2023-01-31T07:36:12;6.30;;;3.60;;
10389;SDS011;5241;47.830;12.972;2023-01-31T07:38:38;7.77;;;2.93;;
10389;SDS011;5241;47.830;12.972;2023-01-31T07:41:04;7.60;;;2.80;;
10389;SDS011;5241;47.830;12.972;2023-01-31T07:43:32;6.53;;;2.60;;
10389;SDS011;5241;47.830;12.972;2023-01-31T07:45:58;7.90;;;3.30;;
10389;SDS011;5241;47.830;12.972;2023-01-31T07:48:23;7.20;;;3.00;;
10389;SDS011;5241;47.830;12.972;2023-01-31T07:50:49;6.40;;;3.17;;
10389;SDS011;5241;47.830;12.972;2023-01-31T07:53:16;7.13;;;3.00;;
10389;SDS011;5241;47.830;12.972;2023-01-31T07:55:42;4.63;;;2.70;;
10389;SDS011;5241;47.830;12.972;2023-01-31T07:58:11;6.33;;;2.80;;
10389;SDS011;5241;47.830;12.972;2023-01-31T08:00:38;5.90;;;2.90;;
10389;SDS011;5241;47.830;12.972;2023-01-31T08:03:23;8.37;;;3.00;;
10389;SDS011;5241;47.830;12.972;2023-01-31T08:06:09;5.83;;;2.67;;
10389;SDS011;5241;47.830;12.972;2023-01-31T08:08:36;5.67;;;2.80;;
10389;SDS011;5241;47.830;12.972;2023-01-31T08:11:03;3.77;;;2.30;;
10389;SDS011;5241;47.830;12.972;2023-01-31T08:13:29;6.67;;;2.53;;
10389;SDS011;5241;47.830;12.972;2023-01-31T08:15:59;3.70;;;2.30;;
10389;SDS011;5241;47.830;12.972;2023-01-31T08:18:25;8.20;;;2.40;;
10389;SDS011;5241;47.830;12.972;2023-01-31T08:20:51;8.03;;;3.07;;
10389;SDS011;5241;47.830;12.972;2023-01-31T08:23:16;8.40;;;2.33;;
10389;SDS011;5241;47.830;12.972;2023-01-31T08:25:42;6.77;;;2.27;;
10389;SDS011;5241;47.830;12.972;2023-01-31T08:28:07;7.00;;;2.50;;
10389;SDS011;5241;47.830;12.972;2023-01-31T08:30:33;5.00;;;2.57;;
10389;SDS011;5241;47.830;12.972;2023-01-31T08:33:03;8.57;;;2.37;;
10389;SDS011;5241;47.830;12.972;2023-01-31T08:35:28;6.07;;;2.23;;
10389;SDS011;5241;47.830;12.972;2023-01-31T08:37:54;4.47;;;2.27;;
10389;SDS011;5241;47.830;12.972;2023-01-31T08:40:19;5.97;;;2.30;;
10389;SDS011;5241;47.830;12.972;2023-01-31T08:42:52;4.27;;;2.47;;
10389;SDS011;5241;47.830;12.972;2023-01-31T08:45:18;7.50;;;2.57;;
10389;SDS011;5241;47.830;12.972;2023-01-31T08:47:44;4.20;;;2.50;;
10389;SDS011;5241;47.830;12.972;2023-01-31T08:50:10;4.03;;;2.10;;
10389;SDS011;5241;47.830;12.972;2023-01-31T08:52:35;6.03;;;2.20;;
10389;SDS011;5241;47.830;12.972;2023-01-31T08:55:01;7.20;;;2.33;;
10389;SDS011;5241;47.830;12.972;2023-01-31T08:57:27;5.73;;;2.00;;
10389;SDS011;5241;47.830;12.972;2023-01-31T08:59:53;6.40;;;2.20;;
10389;SDS011;5241;47.830;12.972;2023-01-31T09:02:19;6.40;;;2.33;;
10389;SDS011;5241;47.830;12.972;2023-01-31T09:04:45;7.10;;;2.20;;
10389;SDS011;5241;47.830;12.972;2023-01-31T09:07:10;6.13;;;2.67;;
10389;SDS011;5241;47.830;12.972;2023-01-31T09:09:36;5.40;;;2.10;;
10389;SDS011;5241;47.830;12.972;2023-01-31T09:12:02;3.87;;;2.27;;
10389;SDS011;5241;47.830;12.972;2023-01-31T09:14:28;6.13;;;2.47;;
10389;SDS011;5241;47.830;12.972;2023-01-31T09:16:55;5.70;;;2.30;;
10389;SDS011;5241;47.830;12.972;2023-01-31T09:19:21;6.63;;;2.90;;
10389;SDS011;5241;47.830;12.972;2023-01-31T09:21:47;5.63;;;2.43;;
10389;SDS011;5241;47.830;12.972;2023-01-31T09:24:13;4.93;;;2.17;;
10389;SDS011;5241;47.830;12.972;2023-01-31T09:26:38;6.90;;;2.63;;
10389;SDS011;5241;47.830;12.972;2023-01-31T09:29:04;6.47;;;2.40;;
10389;SDS011;5241;47.830;12.972;2023-01-31T09:31:29;6.57;;;2.73;;
10389;SDS011;5241;47.830;12.972;2023-01-31T09:33:55;4.13;;;2.30;;
10389;SDS011;5241;47.830;12.972;2023-01-31T09:36:21;8.67;;;2.67;;
10389;SDS011;5241;47.830;12.972;2023-01-31T09:38:52;5.70;;;1.90;;
10389;SDS011;5241;47.830;12.972;2023-01-31T09:43:55;6.70;;;2.50;;
10389;SDS011;5241;47.830;12.972;2023-01-31T09:46:28;7.60;;;2.63;;
10389;SDS011;5241;47.830;12.972;2023-01-31T09:49:00;6.00;;;2.57;;
10389;SDS011;5241;47.830;12.972;2023-01-31T09:51:29;5.37;;;1.93;;
10389;SDS011;5241;47.830;12.972;2023-01-31T09:53:58;8.03;;;2.13;;
10389;SDS011;5241;47.830;12.972;2023-01-31T09:59:06;6.17;;;2.30;;
10389;SDS011;5241;47.830;12.972;2023-01-31T10:02:21;6.27;;;2.23;;
10389;SDS011;5241;47.830;12.972;2023-01-31T10:07:35;8.40;;;2.20;;
10389;SDS011;5241;47.830;12.972;2023-01-31T10:12:56;8.90;;;2.83;;
10389;SDS011;5241;47.830;12.972;2023-01-31T10:15:33;8.07;;;2.27;;
10389;SDS011;5241;47.830;12.972;2023-01-31T10:18:07;4.80;;;1.80;;
10389;SDS011;5241;47.830;12.972;2023-01-31T10:20:47;9.03;;;2.60;;
10389;SDS011;5241;47.830;12.972;2023-01-31T10:28:33;9.43;;;1.97;;
10389;SDS011;5241;47.830;12.972;2023-01-31T10:34:04;7.23;;;2.13;;
10389;SDS011;5241;47.830;12.972;2023-01-31T10:36:52;6.30;;;2.50;;
10389;SDS011;5241;47.830;12.972;2023-01-31T10:39:25;4.50;;;1.87;;
10389;SDS011;5241;47.830;12.972;2023-01-31T10:45:02;4.53;;;1.77;;
10389;SDS011;5241;47.830;12.972;2023-01-31T10:47:37;7.60;;;2.50;;
10389;SDS011;5241;47.830;12.972;2023-01-31T10:53:42;5.90;;;1.73;;
10389;SDS011;5241;47.830;12.972;2023-01-31T10:56:36;7.13;;;2.00;;
10389;SDS011;5241;47.830;12.972;2023-01-31T10:59:10;5.90;;;2.13;;
10389;SDS011;5241;47.830;12.972;2023-01-31T11:01:42;5.50;;;2.03;;
10389;SDS011;5241;47.830;12.972;2023-01-31T11:04:25;6.70;;;1.90;;
10389;SDS011;5241;47.830;12.972;2023-01-31T11:06:58;7.83;;;2.13;;
10389;SDS011;5241;47.830;12.972;2023-01-31T11:09:26;6.23;;;2.10;;
10389;SDS011;5241;47.830;12.972;2023-01-31T11:12:00;6.20;;;2.07;;
10389;SDS011;5241;47.830;12.972;2023-01-31T11:14:27;4.73;;;2.27;;
10389;SDS011;5241;47.830;12.972;2023-01-31T11:16:57;6.53;;;2.43;;
10389;SDS011;5241;47.830;12.972;2023-01-31T11:19:45;6.77;;;2.30;;
10389;SDS011;5241;47.830;12.972;2023-01-31T11:22:32;5.40;;;2.13;;
10389;SDS011;5241;47.830;12.972;2023-01-31T11:25:02;6.60;;;2.37;;
10389;SDS011;5241;47.830;12.972;2023-01-31T11:27:38;4.93;;;1.93;;
10389;SDS011;5241;47.830;12.972;2023-01-31T11:30:06;6.00;;;2.67;;
10389;SDS011;5241;47.830;12.972;2023-01-31T11:32:44;4.80;;;2.10;;
10389;SDS011;5241;47.830;12.972;2023-01-31T11:37:37;5.03;;;2.17;;
10389;SDS011;5241;47.830;12.972;2023-01-31T11:43:02;3.57;;;2.20;;
10389;SDS011;5241;47.830;12.972;2023-01-31T11:45:30;5.30;;;2.33;;
10389;SDS011;5241;47.830;12.972;2023-01-31T11:48:21;6.60;;;2.77;;
10389;SDS011;5241;47.830;12.972;2023-01-31T11:51:01;5.23;;;2.77;;
10389;SDS011;5241;47.830;12.972;2023-01-31T11:53:46;2.77;;;2.00;;
10389;SDS011;5241;47.830;12.972;2023-01-31T11:56:15;7.70;;;2.80;;
10389;SDS011;5241;47.830;12.972;2023-01-31T11:58:54;5.70;;;2.47;;
10389;SDS011;5241;47.830;12.972;2023-01-31T12:01:23;5.93;;;2.53;;
10389;SDS011;5241;47.830;12.972;2023-01-31T12:03:52;3.63;;;2.00;;
10389;SDS011;5241;47.830;12.972;2023-01-31T12:06:30;4.53;;;2.60;;
10389;SDS011;5241;47.830;12.972;2023-01-31T12:08:58;7.97;;;2.30;;
10389;SDS011;5241;47.830;12.972;2023-01-31T12:11:28;5.00;;;2.50;;
10389;SDS011;5241;47.830;12.972;2023-01-31T12:16:30;4.50;;;2.07;;
10389;SDS011;5241;47.830;12.972;2023-01-31T12:33:31;7.30;;;4.00;;
10389;SDS011;5241;47.830;12.972;2023-01-31T12:41:30;6.43;;;2.57;;
10389;SDS011;5241;47.830;12.972;2023-01-31T12:57:48;5.80;;;3.10;;
10389;SDS011;5241;47.830;12.972;2023-01-31T13:00:50;4.63;;;2.50;;
10389;SDS011;5241;47.830;12.972;2023-01-31T13:03:32;3.83;;;2.30;;
10389;SDS011;5241;47.830;12.972;2023-01-31T13:06:21;4.63;;;3.00;;
10389;SDS011;5241;47.830;12.972;2023-01-31T13:09:19;4.20;;;2.43;;
10389;SDS011;5241;47.830;12.972;2023-01-31T13:14:27;4.10;;;3.13;;
10389;SDS011;5241;47.830;12.972;2023-01-31T13:17:01;3.77;;;2.33;;
10389;SDS011;5241;47.830;12.972;2023-01-31T13:19:33;5.10;;;3.07;;
10389;SDS011;5241;47.830;12.972;2023-01-31T13:22:25;8.10;;;3.07;;
10389;SDS011;5241;47.830;12.972;2023-01-31T13:25:02;7.07;;;3.40;;
10389;SDS011;5241;47.830;12.972;2023-01-31T13:27:33;7.73;;;2.90;;
10389;SDS011;5241;47.830;12.972;2023-01-31T13:30:06;6.00;;;2.53;;
10389;SDS011;5241;47.830;12.972;2023-01-31T13:32:44;4.17;;;2.90;;
10389;SDS011;5241;47.830;12.972;2023-01-31T13:38:16;6.30;;;2.43;;
10389;SDS011;5241;47.830;12.972;2023-01-31T13:40:49;4.83;;;2.87;;
10389;SDS011;5241;47.830;12.972;2023-01-31T13:43:16;7.50;;;3.97;;
10389;SDS011;5241;47.830;12.972;2023-01-31T13:45:44;6.07;;;3.67;;
10389;SDS011;5241;47.830;12.972;2023-01-31T13:51:06;6.40;;;3.17;;
10389;SDS011;5241;47.830;12.972;2023-01-31T13:53:44;5.20;;;3.17;;
10389;SDS011;5241;47.830;12.972;2023-01-31T13:56:16;6.47;;;3.47;;
10389;SDS011;5241;47.830;12.972;2023-01-31T13:58:47;5.90;;;3.17;;
10389;SDS011;5241;47.830;12.972;2023-01-31T14:01:22;6.53;;;4.30;;
10389;SDS011;5241;47.830;12.972;2023-01-31T14:06:54;5.10;;;3.70;;
10389;SDS011;5241;47.830;12.972;2023-01-31T14:09:23;6.07;;;3.87;;
10389;SDS011;5241;47.830;12.972;2023-01-31T14:11:51;6.53;;;3.83;;
10389;SDS011;5241;47.830;12.972;2023-01-31T14:16:53;10.30;;;4.93;;
10389;SDS011;5241;47.830;12.972;2023-01-31T14:27:17;6.00;;;3.23;;
10389;SDS011;5241;47.830;12.972;2023-01-31T14:29:46;7.00;;;3.87;;
10389;SDS011;5241;47.830;12.972;2023-01-31T14:32:15;7.77;;;4.13;;
10389;SDS011;5241;47.830;12.972;2023-01-31T14:40:22;7.00;;;3.47;;
10389;SDS011;5241;47.830;12.972;2023-01-31T14:45:54;5.57;;;4.13;;
10389;SDS011;5241;47.830;12.972;2023-01-31T14:48:29;6.80;;;3.50;;
10389;SDS011;5241;47.830;12.972;2023-01-31T14:51:12;5.77;;;3.73;;
10389;SDS011;5241;47.830;12.972;2023-01-31T14:59:21;4.20;;;3.33;;
10389;SDS011;5241;47.830;12.972;2023-01-31T15:02:20;6.47;;;4.40;;
10389;SDS011;5241;47.830;12.972;2023-01-31T15:04:58;6.03;;;4.03;;
10389;SDS011;5241;47.830;12.972;2023-01-31T15:07:26;5.67;;;4.03;;
10389;SDS011;5241;47.830;12.972;2023-01-31T15:09:52;5.00;;;3.40;;
10389;SDS011;5241;47.830;12.972;2023-01-31T15:18:16;9.50;;;4.33;;
10389;SDS011;5241;47.830;12.972;2023-01-31T15:20:48;6.73;;;3.80;;
10389;SDS011;5241;47.830;12.972;2023-01-31T15:23:20;8.87;;;4.47;;
10389;SDS011;5241;47.830;12.972;2023-01-31T15:25:48;6.10;;;4.13;;
10389;SDS011;5241;47.830;12.972;2023-01-31T15:28:16;7.23;;;4.27;;
10389;SDS011;5241;47.830;12.972;2023-01-31T15:30:45;6.17;;;3.77;;
10389;SDS011;5241;47.830;12.972;2023-01-31T15:33:34;6.43;;;4.93;;
10389;SDS011;5241;47.830;12.972;2023-01-31T15:36:37;11.67;;;6.63;;
10389;SDS011;5241;47.830;12.972;2023-01-31T15:39:43;9.93;;;6.00;;
10389;SDS011;5241;47.830;12.972;2023-01-31T15:44:48;12.50;;;7.47;;
10389;SDS011;5241;47.830;12.972;2023-01-31T15:47:21;12.23;;;8.17;;
10389;SDS011;5241;47.830;12.972;2023-01-31T15:49:47;7.87;;;5.87;;
10389;SDS011;5241;47.830;12.972;2023-01-31T15:52:14;9.63;;;4.73;;
10389;SDS011;5241;47.830;12.972;2023-01-31T15:57:19;8.87;;;5.60;;
10389;SDS011;5241;47.830;12.972;2023-01-31T15:59:49;8.03;;;5.10;;
10389;SDS011;5241;47.830;12.972;2023-01-31T16:02:21;8.57;;;4.50;;
10389;SDS011;5241;47.830;12.972;2023-01-31T16:04:51;8.00;;;5.43;;
10389;SDS011;5241;47.830;12.972;2023-01-31T16:07:17;7.13;;;5.30;;
10389;SDS011;5241;47.830;12.972;2023-01-31T16:09:45;10.73;;;6.73;;
10389;SDS011;5241;47.830;12.972;2023-01-31T16:12:12;11.17;;;6.57;;
10389;SDS011;5241;47.830;12.972;2023-01-31T16:14:41;7.13;;;5.30;;
10389;SDS011;5241;47.830;12.972;2023-01-31T16:17:10;11.20;;;6.20;;
10389;SDS011;5241;47.830;12.972;2023-01-31T16:19:36;10.50;;;6.77;;
10389;SDS011;5241;47.830;12.972;2023-01-31T16:22:01;9.70;;;6.20;;
10389;SDS011;5241;47.830;12.972;2023-01-31T16:24:28;7.80;;;5.47;;
10389;SDS011;5241;47.830;12.972;2023-01-31T16:26:56;7.40;;;4.70;;
10389;SDS011;5241;47.830;12.972;2023-01-31T16:29:25;8.93;;;5.57;;
10389;SDS011;5241;47.830;12.972;2023-01-31T16:32:03;4.37;;;3.43;;
10389;SDS011;5241;47.830;12.972;2023-01-31T16:34:53;3.70;;;2.60;;
10389;SDS011;5241;47.830;12.972;2023-01-31T16:37:29;5.77;;;2.90;;
10389;SDS011;5241;47.830;12.972;2023-01-31T16:42:40;9.77;;;5.03;;
10389;SDS011;5241;47.830;12.972;2023-01-31T16:45:27;9.17;;;5.00;;
10389;SDS011;5241;47.830;12.972;2023-01-31T16:47:52;7.53;;;4.60;;
10389;SDS011;5241;47.830;12.972;2023-01-31T16:52:45;7.83;;;4.00;;
10389;SDS011;5241;47.830;12.972;2023-01-31T16:55:19;11.97;;;5.87;;
10389;SDS011;5241;47.830;12.972;2023-01-31T16:57:46;12.67;;;6.80;;
10389;SDS011;5241;47.830;12.972;2023-01-31T17:02:50;4.67;;;3.00;;
10389;SDS011;5241;47.830;12.972;2023-01-31T17:05:20;5.20;;;3.50;;
10389;SDS011;5241;47.830;12.972;2023-01-31T17:07:48;4.90;;;3.17;;
10389;SDS011;5241;47.830;12.972;2023-01-31T17:12:57;3.30;;;2.90;;
10389;SDS011;5241;47.830;12.972;2023-01-31T17:15:25;3.13;;;2.60;;
10389;SDS011;5241;47.830;12.972;2023-01-31T17:17:51;5.07;;;2.97;;
10389;SDS011;5241;47.830;12.972;2023-01-31T17:20:18;4.50;;;2.93;;
10389;SDS011;5241;47.830;12.972;2023-01-31T17:22:45;5.83;;;3.40;;
10389;SDS011;5241;47.830;12.972;2023-01-31T17:25:22;5.30;;;3.50;;
10389;SDS011;5241;47.830;12.972;2023-01-31T17:27:50;3.73;;;2.90;;
10389;SDS011;5241;47.830;12.972;2023-01-31T17:30:17;4.20;;;3.20;;
10389;SDS011;5241;47.830;12.972;2023-01-31T17:32:43;6.63;;;4.07;;
10389;SDS011;5241;47.830;12.972;2023-01-31T17:37:47;4.53;;;3.90;;
10389;SDS011;5241;47.830;12.972;2023-01-31T17:40:12;4.40;;;2.67;;
10389;SDS011;5241;47.830;12.972;2023-01-31T17:42:38;5.20;;;2.53;;
10389;SDS011;5241;47.830;12.972;2023-01-31T17:45:04;3.17;;;2.10;;
10389;SDS011;5241;47.830;12.972;2023-01-31T17:47:30;2.50;;;1.90;;
10389;SDS011;5241;47.830;12.972;2023-01-31T17:49:56;3.23;;;2.37;;